Hahnville, Louisiana
Current Conditions -  °F | °C
As of 1:53 PM on Thursday 30 Oct 2014 (Local Time) from KMSY Reporting Station
Few Clouds Few Clouds  
Wind Chill: 72°   Ceiling: Unl
Heat Index: 72°   Visibility: 10mi
Dew Point: 43°   Wind: 10mph
Humidity: 35%   Direction: 10°N
Pressure: 30.07"   Gusts: NA
Location:  29.98°N, 90.41°W
Report Text: KMSY 301853Z 01009KT 10SM FEW010 22/06 A3007 RMK AO2 SLP184 FU FEW010 T02220061
Loading
Personal Weather Stations






























Interactive Weather Map
Tropical Storm Tracking
New forecast layout! Learn more

10-Day Weather Forecast

Advertisements
Track Severe Weather on mobile